Ogallala, Nebraska
Current Conditions -  °F | °C
As of 6:15 AM on Friday 24 Oct 2014 (Local Time) from KOGA Reporting Station
Clear Clear  
Wind Chill: 41°   Ceiling: Unl
Heat Index: 44°   Visibility: 10mi
Dew Point: 39°   Wind: 6mph
Humidity: 82%   Direction: 260°W
Pressure: 30.01"   Gusts: NA
Location:  41.12°N, 101.71°W
Report Text: KOGA 241215Z AUTO 26005KT 10SM CLR 07/04 A3001 RMK AO2 T00660037
Loading
Personal Weather Stations






























Interactive Weather Map
Tropical Storm Tracking
New forecast layout! Learn more

10-Day Weather Forecast

Advertisements
Track Severe Weather on mobile